Time;durP1;ratioP1;P1;durP2;ratioP2;P2;SDS_P1;SDS_P2;PMS_P1;PMS_P2;Temp;Humidity;BMP_temperature;BMP_pressure;BME280_temperature;BME280_humidity;BME280_pressure;Samples;Min_cycle;Max_cycle;Signal;HPM_P1;HPM_P2
2023/10/09 00:08:44;;;;;;;21.80;13.48;;;22.30;72.00;;;;;;6235923;22;20027;-81
2023/10/09 00:11:17;;;;;;;17.38;13.75;;;22.30;71.90;;;;;;6188814;23;20013;-81
2023/10/09 00:13:51;;;;;;;19.13;13.43;;;22.30;71.70;;;;;;6216062;23;20004;-82
2023/10/09 00:16:32;;;;;;;21.27;14.55;;;22.20;71.80;;;;;;6217846;23;20112;-82
2023/10/09 00:19:13;;;;;;;19.85;14.48;;;22.30;72.00;;;;;;6228520;23;20011;-81
2023/10/09 00:21:46;;;;;;;23.48;14.10;;;22.20;71.90;;;;;;6233173;23;20005;-80
2023/10/09 00:24:13;;;;;;;20.35;14.20;;;22.20;73.00;;;;;;6224997;23;20022;-79
2023/10/09 00:26:48;;;;;;;23.52;14.60;;;22.10;72.10;;;;;;6223943;23;19997;-79
2023/10/09 00:29:23;;;;;;;22.10;14.95;;;22.10;72.60;;;;;;6219763;23;20379;-81
2023/10/09 00:32:13;;;;;;;19.45;14.93;;;22.10;72.50;;;;;;6216758;23;20075;-80
2023/10/09 00:34:42;;;;;;;20.25;13.32;;;22.10;73.40;;;;;;6215506;23;20513;-81
2023/10/09 00:37:17;;;;;;;17.55;14.10;;;22.10;73.00;;;;;;6218804;23;20008;-80
2023/10/09 00:39:44;;;;;;;21.05;14.45;;;22.10;73.60;;;;;;6217946;23;20024;-81
2023/10/09 00:42:15;;;;;;;21.67;14.15;;;22.10;73.00;;;;;;6216178;23;20079;-82
2023/10/09 00:44:44;;;;;;;22.27;14.07;;;22.10;72.90;;;;;;6188521;23;20005;-80
2023/10/09 00:47:21;;;;;;;22.90;15.10;;;22.00;73.10;;;;;;6188557;23;20001;-82
2023/10/09 00:49:59;;;;;;;19.67;13.77;;;22.10;73.00;;;;;;6215182;23;20438;-81
2023/10/09 00:52:43;;;;;;;21.10;14.13;;;22.10;73.00;;;;;;6215126;23;20331;-80
2023/10/09 00:55:56;;;;;;;;;;;22.10;72.90;;;;;;6215607;23;20445;-81
2023/10/09 00:57:57;;;;;;;18.75;13.50;;;22.10;72.90;;;;;;6198423;23;20376;-83
2023/10/09 01:00:32;;;;;;;21.95;14.35;;;22.10;72.90;;;;;;6214657;23;20001;-81
2023/10/09 01:03:19;;;;;;;22.15;13.85;;;22.00;72.70;;;;;;6216972;23;19997;-81
2023/10/09 01:05:52;;;;;;;23.17;14.18;;;22.00;73.60;;;;;;6220958;23;20430;-81
2023/10/09 01:08:43;;;;;;;21.45;14.38;;;22.10;73.20;;;;;;6217242;23;20394;-81
2023/10/09 01:11:18;;;;;;;20.15;13.45;;;22.10;73.60;;;;;;6245374;23;20004;-81
2023/10/09 01:16:16;;;;;;;18.85;13.18;;;22.00;73.00;;;;;;6245880;23;20070;-81
2023/10/09 01:18:49;;;;;;;18.95;13.60;;;22.00;73.10;;;;;;6219020;23;20422;-81
2023/10/09 01:21:17;;;;;;;22.33;13.05;;;22.00;73.70;;;;;;6247028;23;20031;-80
2023/10/09 01:26:39;;;;;;;22.75;13.45;;;21.90;72.90;;;;;;6213802;23;20008;-81
2023/10/09 01:29:14;;;;;;;18.95;13.57;;;21.90;73.00;;;;;;6245464;23;20007;-80
2023/10/09 01:31:52;;;;;;;16.00;13.15;;;21.80;73.50;;;;;;6245651;23;20007;-82
2023/10/09 01:37:05;;;;;;;18.33;13.93;;;21.70;72.70;;;;;;6244775;23;20021;-79
2023/10/09 01:39:31;;;;;;;16.33;13.02;;;21.70;73.00;;;;;;6246610;23;20007;-79
2023/10/09 01:42:01;;;;;;;18.90;13.18;;;21.70;73.10;;;;;;6246126;23;20079;-80
2023/10/09 01:44:34;;;;;;;22.08;13.85;;;21.60;73.20;;;;;;6246067;23;20314;-80
2023/10/09 01:47:07;;;;;;;;;;;21.60;73.00;;;;;;6245981;23;20497;-81
2023/10/09 01:49:41;;;;;;;19.38;13.48;;;21.60;73.70;;;;;;6249906;23;19906;-81
2023/10/09 01:52:09;;;;;;;20.92;13.45;;;21.60;73.50;;;;;;6235760;23;20421;-79
2023/10/09 01:54:40;;;;;;;17.15;13.07;;;21.60;72.70;;;;;;6265795;23;20014;-80
2023/10/09 01:57:13;;;;;;;18.08;13.02;;;21.60;72.80;;;;;;6245144;23;20012;-81
2023/10/09 01:59:43;;;;;;;18.25;12.50;;;21.60;72.40;;;;;;6245746;23;20000;-80
2023/10/09 02:02:33;;;;;;;15.48;12.10;;;21.60;72.20;;;;;;6249845;23;20071;-81
2023/10/09 02:05:26;;;;;;;21.70;13.02;;;21.60;72.10;;;;;;6245630;23;20008;-81
2023/10/09 02:07:52;;;;;;;16.48;12.65;;;21.50;72.20;;;;;;6245477;23;20329;-80
2023/10/09 02:12:59;;;;;;;16.75;12.73;;;21.50;72.30;;;;;;6246834;23;20036;-80
2023/10/09 02:23:30;;;;;;;18.73;12.30;;;21.40;71.90;;;;;;6244880;23;20012;-79
2023/10/09 02:26:04;;;;;;;17.63;11.75;;;21.40;71.90;;;;;;6245349;23;20178;-80
2023/10/09 02:28:34;;;;;;;20.65;12.05;;;21.30;71.70;;;;;;6245786;23;20000;-80
2023/10/09 02:31:11;;;;;;;18.30;11.48;;;21.40;71.70;;;;;;6261849;23;20010;-80
2023/10/09 02:33:39;;;;;;;14.05;11.00;;;21.40;71.20;;;;;;6246619;23;20071;-80
2023/10/09 02:36:08;;;;;;;16.83;11.80;;;21.40;71.10;;;;;;6246581;23;20016;-80
2023/10/09 02:38:40;;;;;;;13.52;10.30;;;21.50;71.20;;;;;;6246979;23;20419;-82
2023/10/09 02:43:40;;;;;;;17.33;11.07;;;21.40;70.80;;;;;;6258956;23;20051;-79
2023/10/09 02:46:29;;;;;;;16.38;11.02;;;21.30;70.70;;;;;;6254556;23;20008;-80
2023/10/09 02:48:56;;;;;;;15.68;10.75;;;21.30;70.70;;;;;;6255270;23;19997;-80
2023/10/09 02:53:57;;;;;;;19.40;10.95;;;21.30;70.80;;;;;;6264120;23;20079;-80
2023/10/09 02:56:24;;;;;;;15.57;10.48;;;21.30;70.90;;;;;;6247794;23;20358;-81
2023/10/09 02:59:05;;;;;;;15.20;10.63;;;21.20;70.60;;;;;;6248213;23;20000;-81
2023/10/09 03:01:31;;;;;;;13.77;10.60;;;21.30;70.90;;;;;;6222694;23;20018;-82
2023/10/09 03:03:59;;;;;;;16.45;10.10;;;21.30;70.70;;;;;;6247480;23;20445;-81
2023/10/09 03:06:30;;;;;;;13.75;10.70;;;21.30;70.80;;;;;;6247112;23;20012;-80
2023/10/09 03:08:57;;;;;;;15.00;10.63;;;21.20;70.90;;;;;;6247322;23;20016;-81
2023/10/09 03:11:23;;;;;;;15.73;10.15;;;21.20;70.70;;;;;;6249342;23;20047;-80
2023/10/09 03:13:50;;;;;;;16.17;10.77;;;21.20;70.60;;;;;;6220359;23;20016;-81
2023/10/09 03:16:18;;;;;;;15.45;10.15;;;21.20;70.80;;;;;;6246878;23;20008;-81
2023/10/09 03:18:53;;;;;;;17.05;10.43;;;21.30;70.50;;;;;;6247176;23;20373;-80
2023/10/09 03:21:20;;;;;;;15.73;10.38;;;21.20;70.60;;;;;;6249232;23;20015;-81
2023/10/09 03:23:50;;;;;;;16.88;10.38;;;21.20;70.60;;;;;;6247821;23;20035;-80
2023/10/09 03:26:20;;;;;;;17.15;10.18;;;21.20;70.60;;;;;;6222491;23;20012;-80
2023/10/09 03:28:47;;;;;;;14.98;10.02;;;21.20;71.00;;;;;;6254374;23;19997;-81
2023/10/09 03:31:13;;;;;;;16.38;10.43;;;21.20;70.30;;;;;;6259403;23;20075;-80
2023/10/09 03:33:40;;;;;;;18.45;10.27;;;21.10;70.40;;;;;;6235934;23;20028;-80
2023/10/09 03:36:09;;;;;;;14.15;11.02;;;21.10;70.30;;;;;;6265325;23;20015;-81
2023/10/09 03:38:36;;;;;;;16.25;10.70;;;21.00;70.30;;;;;;6254645;23;20377;-80
2023/10/09 03:41:05;;;;;;;14.18;10.63;;;21.00;70.30;;;;;;6220301;23;20316;-81
2023/10/09 03:43:38;;;;;;;15.27;9.88;;;21.00;70.20;;;;;;6247547;23;20024;-82
2023/10/09 03:46:12;;;;;;;16.02;10.98;;;21.00;70.30;;;;;;6219975;23;20008;-82
2023/10/09 03:48:38;;;;;;;16.65;10.20;;;21.10;70.40;;;;;;6248055;23;20007;-81
2023/10/09 03:51:12;;;;;;;14.30;9.63;;;21.00;70.20;;;;;;6219837;23;20083;-81
2023/10/09 03:53:42;;;;;;;14.27;10.15;;;21.00;70.50;;;;;;6247232;23;20003;-81
2023/10/09 03:56:16;;;;;;;13.63;9.90;;;21.00;70.20;;;;;;6246603;23;20035;-82
2023/10/09 03:58:43;;;;;;;17.30;11.05;;;21.00;70.30;;;;;;6248217;23;20499;-81
2023/10/09 04:03:55;;;;;;;18.42;11.07;;;21.10;70.40;;;;;;6270409;23;20020;-83
2023/10/09 04:06:28;;;;;;;18.50;11.13;;;21.10;70.50;;;;;;6252194;23;20035;-82
2023/10/09 04:08:54;;;;;;;14.93;10.48;;;21.00;70.60;;;;;;6249081;23;20019;-81
2023/10/09 04:11:23;;;;;;;15.70;10.98;;;21.00;70.20;;;;;;6246913;23;20019;-81
2023/10/09 04:13:52;;;;;;;16.15;10.73;;;21.00;70.20;;;;;;6246731;23;20004;-81
2023/10/09 04:18:56;;;;;;;16.90;11.50;;;21.00;70.10;;;;;;6247403;23;20466;-81
2023/10/09 04:21:34;;;;;;;15.70;11.57;;;20.90;70.70;;;;;;6247310;23;20048;-82
2023/10/09 04:26:46;;;;;;;18.00;10.70;;;20.80;70.40;;;;;;6248386;23;20342;-80
2023/10/09 04:29:26;;;;;;;16.23;11.30;;;20.80;70.60;;;;;;6246834;23;20020;-81
2023/10/09 04:32:00;;;;;;;16.98;11.15;;;20.80;70.80;;;;;;6246592;23;20000;-81
2023/10/09 04:34:37;;;;;;;15.52;11.13;;;20.80;70.70;;;;;;6246397;23;19996;-81
2023/10/09 04:37:37;;;;;;;16.80;11.15;;;20.80;71.00;;;;;;6269250;23;20039;-81
2023/10/09 04:40:11;;;;;;;15.30;11.00;;;20.80;70.90;;;;;;6249350;23;20430;-82
2023/10/09 04:42:36;;;;;;;17.85;11.88;;;20.80;71.20;;;;;;6249164;23;20080;-79
2023/10/09 04:47:35;;;;;;;16.60;11.52;;;20.80;70.80;;;;;;6247350;23;20008;-82
2023/10/09 04:50:08;;;;;;;15.98;11.23;;;20.80;70.60;;;;;;6246980;23;20015;-82
2023/10/09 05:03:12;;;;;;;13.90;11.45;;;20.80;70.70;;;;;;6267013;23;20039;-81
2023/10/09 05:16:26;;;;;;;16.50;11.60;;;20.60;71.10;;;;;;6247151;23;20427;-83
2023/10/09 05:18:56;;;;;;;17.60;11.27;;;20.60;70.90;;;;;;6246517;23;20366;-83
2023/10/09 05:37:32;;;;;;;17.40;11.75;;;20.80;70.30;;;;;;6245402;23;20020;-82
2023/10/09 06:08:24;;;;;;;17.58;11.10;;;21.00;69.40;;;;;;6223807;23;20016;-82
2023/10/09 06:11:05;;;;;;;20.25;10.93;;;21.10;69.40;;;;;;6249564;23;20081;-82
2023/10/09 06:13:37;;;;;;;23.00;11.60;;;21.10;69.10;;;;;;6249948;23;20111;-82
2023/10/09 06:16:29;;;;;;;16.42;11.32;;;21.20;69.00;;;;;;6247710;23;20004;-81
2023/10/09 06:19:07;;;;;;;17.88;10.48;;;21.30;68.80;;;;;;6247278;23;20008;-78
2023/10/09 06:24:19;;;;;;;19.27;11.20;;;21.70;68.20;;;;;;6253932;23;20433;-81
2023/10/09 06:34:52;;;;;;;19.88;11.02;;;22.20;66.40;;;;;;6249636;23;19899;-81
2023/10/09 06:40:10;;;;;;;21.35;10.90;;;22.50;66.70;;;;;;6249699;23;20015;-82
2023/10/09 06:45:09;;;;;;;16.85;11.05;;;22.80;65.90;;;;;;6254994;23;20079;-81
2023/10/09 06:47:41;;;;;;;15.88;9.68;;;22.90;65.80;;;;;;6247433;23;20369;-82
2023/10/09 06:52:57;;;;;;;19.10;10.40;;;23.20;64.70;;;;;;6247948;23;20043;-82
2023/10/09 06:55:33;;;;;;;21.70;11.30;;;23.30;65.10;;;;;;6246827;23;20004;-82
2023/10/09 06:58:01;;;;;;;21.95;10.95;;;23.40;64.70;;;;;;6247738;23;20081;-81
2023/10/09 07:00:54;;;;;;;18.92;10.70;;;23.60;65.00;;;;;;6247234;23;20010;-79
2023/10/09 07:03:29;;;;;;;18.08;10.77;;;23.70;63.90;;;;;;6247487;23;20015;-84
2023/10/09 07:06:23;;;;;;;15.95;10.93;;;23.80;64.00;;;;;;6247105;23;20007;-80
2023/10/09 07:09:15;;;;;;;16.42;10.15;;;23.80;63.30;;;;;;6247062;23;20447;-82
2023/10/09 07:22:39;;;;;;;15.27;9.98;;;24.10;63.50;;;;;;6257077;23;20038;-83
2023/10/09 07:25:40;;;;;;;23.27;9.90;;;24.20;62.80;;;;;;6253660;23;20011;-83
2023/10/09 07:27:55;;;;;;;20.85;9.55;;;24.20;62.60;;;;;;6245386;23;20001;-82
2023/10/09 07:38:19;;;;;;;14.60;9.45;;;24.30;61.90;;;;;;6249200;23;20012;-84
2023/10/09 07:43:39;;;;;;;14.80;8.98;;;24.20;62.30;;;;;;6249067;23;20058;-83
2023/10/09 07:48:55;;;;;;;17.85;8.73;;;24.10;61.90;;;;;;6248643;23;20149;-84
2023/10/09 07:51:23;;;;;;;21.30;9.60;;;24.00;62.00;;;;;;6253512;23;20047;-83
2023/10/09 07:54:06;;;;;;;21.10;9.82;;;24.00;62.10;;;;;;6254180;23;20008;-83
2023/10/09 07:56:38;;;;;;;;;;;24.00;62.00;;;;;;6248073;23;20341;-85
2023/10/09 07:59:10;;;;;;;15.60;7.93;;;24.00;62.30;;;;;;6247105;23;19903;-83
2023/10/09 08:01:52;;;;;;;18.63;9.80;;;23.90;62.20;;;;;;6247774;23;19996;-82
2023/10/09 08:04:37;;;;;;;13.43;9.02;;;23.90;62.20;;;;;;6248621;23;20015;-82
2023/10/09 08:07:19;;;;;;;18.63;9.25;;;23.90;62.30;;;;;;6250182;23;20004;-82
2023/10/09 08:09:48;;;;;;;25.00;9.90;;;23.90;62.30;;;;;;6249159;23;20063;-82
2023/10/09 08:12:39;;;;;;;20.40;9.82;;;23.90;62.20;;;;;;6248508;23;20303;-82
2023/10/09 08:18:09;;;;;;;16.83;8.10;;;23.80;61.80;;;;;;6212757;23;20020;-82
2023/10/09 08:21:19;;;;;;;15.10;7.90;;;23.80;61.50;;;;;;6247671;23;20008;-82
2023/10/09 08:23:48;;;;;;;18.00;7.63;;;23.80;61.50;;;;;;6247421;23;20099;-83
2023/10/09 08:26:28;;;;;;;20.98;8.38;;;23.80;61.30;;;;;;6248607;23;20016;-82
2023/10/09 08:29:15;;;;;;;16.77;7.28;;;23.90;61.30;;;;;;6262227;23;20000;-82
2023/10/09 08:31:46;;;;;;;19.02;8.15;;;23.90;61.20;;;;;;6255881;23;20024;-83
2023/10/09 08:34:24;;;;;;;24.67;7.80;;;23.90;60.80;;;;;;6250592;23;20008;-84
2023/10/09 08:36:52;;;;;;;19.17;8.07;;;24.00;60.90;;;;;;6248002;23;20450;-84
2023/10/09 08:39:30;;;;;;;27.40;8.85;;;24.00;60.90;;;;;;6248100;23;20425;-84
2023/10/09 08:42:01;;;;;;;23.50;8.73;;;24.00;60.80;;;;;;6248174;23;20004;-83
2023/10/09 08:44:29;;;;;;;18.88;8.15;;;24.10;60.70;;;;;;6248229;23;20004;-84
2023/10/09 08:46:57;;;;;;;21.67;7.75;;;24.10;60.50;;;;;;6248181;23;20028;-83
2023/10/09 08:49:26;;;;;;;19.10;7.85;;;24.10;60.00;;;;;;6247609;23;20083;-81
2023/10/09 08:51:52;;;;;;;17.42;7.25;;;24.20;60.10;;;;;;6248461;23;20023;-84
2023/10/09 08:54:19;;;;;;;16.45;7.72;;;24.20;59.70;;;;;;6249463;23;20004;-83
2023/10/09 08:56:51;;;;;;;18.50;7.90;;;24.30;59.90;;;;;;6248003;23;20014;-84
2023/10/09 08:59:18;;;;;;;19.27;7.80;;;24.30;59.80;;;;;;6247596;23;20039;-82
2023/10/09 09:01:49;;;;;;;17.23;7.07;;;24.30;59.60;;;;;;6247909;23;20004;-85
2023/10/09 09:04:38;;;;;;;18.10;7.47;;;24.40;59.50;;;;;;6248298;23;19996;-83
2023/10/09 09:07:42;;;;;;;16.98;7.30;;;24.50;59.20;;;;;;6221250;23;20028;-82
2023/10/09 09:10:17;;;;;;;18.50;7.93;;;24.50;58.80;;;;;;6095306;23;20026;-82
2023/10/09 09:12:46;;;;;;;19.73;7.45;;;24.60;58.90;;;;;;6201538;23;20017;-84
2023/10/09 09:15:19;;;;;;;17.13;7.75;;;24.70;58.90;;;;;;6223080;23;20027;-82
2023/10/09 09:17:46;;;;;;;26.15;8.32;;;24.70;58.60;;;;;;6226454;23;20032;-81
2023/10/09 09:20:45;;;;;;;23.52;7.85;;;24.80;58.90;;;;;;6218667;23;20001;-82
2023/10/09 09:23:12;;;;;;;17.02;7.25;;;24.90;58.40;;;;;;6217241;23;20007;-83
2023/10/09 09:26:01;;;;;;;21.92;7.75;;;25.00;58.30;;;;;;6190520;23;20347;-85
2023/10/09 09:28:32;;;;;;;23.58;8.63;;;25.10;58.20;;;;;;6218076;23;20333;-83
2023/10/09 09:31:15;;;;;;;21.83;8.00;;;25.20;57.80;;;;;;6217356;23;20068;-83
2023/10/09 09:33:42;;;;;;;14.63;8.00;;;25.20;57.70;;;;;;6217269;23;20000;-83
2023/10/09 09:36:11;;;;;;;17.73;7.47;;;25.30;57.90;;;;;;6190915;23;20096;-84
2023/10/09 09:41:23;;;;;;;19.60;6.88;;;25.40;57.70;;;;;;6233813;23;20080;-83
2023/10/09 09:43:56;;;;;;;17.70;7.20;;;25.50;57.90;;;;;;6229988;23;20426;-84
2023/10/09 09:46:32;;;;;;;22.80;7.75;;;25.60;57.30;;;;;;6231649;23;20001;-84
2023/10/09 09:49:01;;;;;;;21.23;7.07;;;25.70;57.20;;;;;;6222403;23;20439;-83
2023/10/09 09:51:29;;;;;;;23.95;7.43;;;25.80;56.60;;;;;;6220013;23;20370;-84
2023/10/09 09:53:55;;;;;;;26.52;7.88;;;25.90;56.30;;;;;;6219812;23;20011;-83
2023/10/09 09:56:25;;;;;;;21.15;7.53;;;26.00;56.10;;;;;;6219239;23;20016;-83
2023/10/09 09:58:56;;;;;;;17.98;7.68;;;26.10;55.50;;;;;;6218906;23;20368;-83
2023/10/09 10:01:29;;;;;;;16.88;7.63;;;26.20;55.50;;;;;;6218754;23;20008;-82
2023/10/09 10:04:01;;;;;;;16.65;8.38;;;26.30;55.70;;;;;;6218755;23;20008;-83
2023/10/09 10:06:32;;;;;;;19.52;8.10;;;26.30;55.70;;;;;;6218974;23;20008;-82
2023/10/09 10:08:59;;;;;;;16.52;7.88;;;26.40;55.60;;;;;;6228950;23;20108;-82
2023/10/09 10:11:44;;;;;;;20.98;7.55;;;26.50;55.60;;;;;;6248996;23;20107;-82
2023/10/09 10:14:28;;;;;;;13.55;7.07;;;26.60;55.60;;;;;;6248580;23;20000;-82
2023/10/09 10:17:11;;;;;;;;;;;26.60;55.50;;;;;;6222109;23;20335;-84
2023/10/09 10:22:48;;;;;;;17.30;7.90;;;26.80;55.10;;;;;;6249176;23;20087;-82
2023/10/09 10:25:35;;;;;;;14.25;7.93;;;26.90;55.80;;;;;;6221555;23;20004;-82
2023/10/09 10:28:38;;;;;;;15.43;7.65;;;27.10;54.60;;;;;;6248627;23;20008;-83
2023/10/09 10:31:07;;;;;;;16.90;7.45;;;27.10;54.20;;;;;;6247962;23;20426;-82
2023/10/09 10:33:58;;;;;;;18.55;8.00;;;27.20;54.50;;;;;;6248242;23;20004;-81
2023/10/09 10:36:26;;;;;;;18.10;8.30;;;27.40;53.80;;;;;;6247728;23;20004;-82
2023/10/09 10:39:08;;;;;;;20.98;7.68;;;27.50;54.20;;;;;;6248682;23;20008;-83
2023/10/09 10:41:38;;;;;;;17.10;8.23;;;27.50;53.60;;;;;;6251025;23;20004;-82
2023/10/09 10:47:21;;;;;;;19.20;7.95;;;27.70;53.20;;;;;;6183132;23;20008;-83
2023/10/09 10:50:20;;;;;;;15.70;8.10;;;27.90;53.40;;;;;;6248954;23;20011;-84
2023/10/09 10:52:55;;;;;;;15.68;7.97;;;27.90;52.60;;;;;;6248794;23;20390;-83
2023/10/09 10:57:56;;;;;;;15.23;8.32;;;28.10;52.00;;;;;;6262358;23;20020;-82
2023/10/09 11:06:13;;;;;;;12.90;8.20;;;28.30;52.00;;;;;;6127049;23;20021;-83
2023/10/09 11:08:54;;;;;;;18.23;8.02;;;28.40;52.00;;;;;;6174550;23;20097;-83
2023/10/09 11:11:20;;;;;;;15.15;7.97;;;28.40;52.10;;;;;;6248088;23;20000;-83
2023/10/09 11:13:54;;;;;;;14.63;7.72;;;28.60;51.80;;;;;;6248138;23;20008;-84
2023/10/09 11:16:39;;;;;;;18.98;8.57;;;28.60;51.00;;;;;;6248380;23;20438;-83
2023/10/09 11:19:13;;;;;;;19.10;9.00;;;28.70;50.50;;;;;;6249192;23;20005;-83
2023/10/09 11:21:43;;;;;;;13.93;8.73;;;28.80;51.10;;;;;;6248309;23;20008;-81
2023/10/09 11:24:24;;;;;;;18.50;8.50;;;28.90;50.60;;;;;;6249472;23;20024;-84
2023/10/09 11:26:56;;;;;;;18.05;7.75;;;29.00;50.10;;;;;;6251168;23;20055;-82
2023/10/09 11:32:19;;;;;;;16.70;8.25;;;29.10;49.50;;;;;;6248951;23;20440;-83
2023/10/09 11:34:52;;;;;;;13.38;7.32;;;29.20;50.20;;;;;;6248211;23;20446;-83
2023/10/09 11:39:57;;;;;;;14.15;7.38;;;29.30;49.70;;;;;;6248944;23;19903;-82
2023/10/09 11:42:57;;;;;;;16.17;7.78;;;29.40;50.00;;;;;;6248992;23;20449;-82
2023/10/09 11:45:37;;;;;;;14.63;8.02;;;29.50;49.70;;;;;;6241065;23;20012;-82
2023/10/09 11:48:21;;;;;;;16.88;7.88;;;29.60;49.70;;;;;;6254453;23;20004;-82
2023/10/09 11:50:51;;;;;;;22.05;8.30;;;29.70;49.60;;;;;;6255820;23;20019;-83
2023/10/09 11:53:19;;;;;;;15.95;7.80;;;29.70;48.10;;;;;;6255262;23;20008;-84
2023/10/09 11:55:48;;;;;;;12.50;7.57;;;29.80;48.50;;;;;;6252812;23;19996;-82
2023/10/09 11:58:22;;;;;;;17.17;7.30;;;29.90;48.00;;;;;;6248007;23;20008;-83
2023/10/09 12:00:56;;;;;;;16.67;9.05;;;29.90;48.20;;;;;;6248450;23;20087;-84
2023/10/09 12:03:28;;;;;;;16.15;7.75;;;30.00;47.90;;;;;;6247236;23;20015;-82
2023/10/09 12:05:56;;;;;;;14.63;7.65;;;30.10;48.00;;;;;;6247722;23;20079;-82
2023/10/09 12:08:26;;;;;;;15.57;7.70;;;30.10;47.40;;;;;;6251237;23;20005;-83
2023/10/09 12:10:55;;;;;;;14.45;7.32;;;30.20;47.20;;;;;;6226389;23;20035;-83
2023/10/09 12:13:25;;;;;;;13.93;7.65;;;30.30;46.60;;;;;;6247597;23;20047;-84
2023/10/09 12:15:54;;;;;;;14.50;8.27;;;30.30;46.90;;;;;;6246894;23;20034;-83
2023/10/09 12:18:23;;;;;;;13.25;8.38;;;30.30;46.80;;;;;;6220664;23;20098;-84
2023/10/09 12:20:51;;;;;;;15.13;8.55;;;30.40;46.80;;;;;;6246318;23;20004;-83
2023/10/09 12:23:22;;;;;;;13.40;7.72;;;30.40;45.90;;;;;;6247826;23;20012;-83
2023/10/09 12:25:51;;;;;;;13.48;8.38;;;30.50;47.30;;;;;;6248619;23;20425;-82
2023/10/09 12:28:20;;;;;;;13.68;7.57;;;30.50;47.00;;;;;;6246534;23;20035;-83
2023/10/09 12:30:50;;;;;;;14.93;7.97;;;30.60;46.90;;;;;;6246502;23;20028;-84
2023/10/09 12:33:16;;;;;;;13.88;7.90;;;30.60;47.10;;;;;;6219514;23;20012;-83
2023/10/09 12:35:45;;;;;;;14.50;8.45;;;30.70;47.30;;;;;;6246816;23;20422;-83
2023/10/09 12:38:12;;;;;;;17.10;8.57;;;30.80;48.40;;;;;;6246249;23;20098;-84
2023/10/09 12:40:40;;;;;;;16.38;9.07;;;30.80;49.50;;;;;;6246806;23;20003;-82
2023/10/09 12:43:15;;;;;;;14.70;8.55;;;30.80;50.20;;;;;;6246694;23;20000;-84
2023/10/09 12:45:45;;;;;;;16.17;8.65;;;30.80;50.70;;;;;;6246476;23;20070;-82
2023/10/09 12:48:10;;;;;;;14.73;8.32;;;30.80;49.50;;;;;;6246789;23;20027;-85
2023/10/09 12:50:44;;;;;;;14.80;8.40;;;30.80;50.80;;;;;;6246550;23;20004;-85
2023/10/09 12:53:10;;;;;;;14.95;8.30;;;30.80;49.90;;;;;;6219604;23;20015;-83
2023/10/09 12:55:40;;;;;;;13.25;7.93;;;30.70;51.10;;;;;;6246291;23;20489;-84
2023/10/09 12:58:14;;;;;;;15.70;8.40;;;30.70;51.20;;;;;;6246756;23;20445;-82
2023/10/09 13:00:49;;;;;;;20.90;8.20;;;30.70;51.30;;;;;;6220242;23;20334;-81
2023/10/09 13:03:18;;;;;;;17.20;8.43;;;30.70;51.10;;;;;;6246861;23;20335;-85
2023/10/09 13:05:54;;;;;;;16.45;9.35;;;30.80;51.40;;;;;;6246978;23;20306;-84
2023/10/09 13:08:35;;;;;;;19.88;8.38;;;30.80;49.80;;;;;;6246166;23;20020;-84
2023/10/09 13:11:10;;;;;;;15.40;8.02;;;30.80;49.70;;;;;;6246651;23;20012;-83
2023/10/09 13:13:41;;;;;;;16.20;7.88;;;30.80;51.20;;;;;;6246274;23;20035;-82
2023/10/09 13:16:13;;;;;;;17.17;9.25;;;30.80;49.60;;;;;;6246386;23;20004;-82
2023/10/09 13:18:40;;;;;;;12.57;8.40;;;30.80;51.00;;;;;;6246962;23;20039;-82
2023/10/09 13:21:06;;;;;;;12.23;8.20;;;30.80;51.00;;;;;;6260527;23;19996;-81
2023/10/09 13:23:39;;;;;;;15.10;8.02;;;30.80;50.80;;;;;;6256480;23;20000;-81
2023/10/09 13:26:17;;;;;;;17.63;8.18;;;30.80;50.80;;;;;;6247088;23;20060;-82
2023/10/09 13:28:53;;;;;;;15.43;8.68;;;30.80;50.90;;;;;;6246938;23;20006;-82
2023/10/09 13:31:26;;;;;;;17.27;7.90;;;30.90;51.00;;;;;;6246394;23;20004;-81
2023/10/09 13:33:56;;;;;;;10.23;7.50;;;30.80;50.30;;;;;;6251871;23;20000;-82
2023/10/09 13:36:33;;;;;;;13.43;7.45;;;30.70;50.20;;;;;;6250124;23;20000;-84
2023/10/09 13:41:47;;;;;;;12.40;7.95;;;30.70;49.30;;;;;;6248719;23;20092;-85
2023/10/09 13:44:13;;;;;;;16.02;7.85;;;30.60;50.70;;;;;;6247902;23;20000;-83
2023/10/09 13:46:41;;;;;;;16.73;8.18;;;30.60;50.90;;;;;;6245366;23;20088;-81
2023/10/09 13:49:13;;;;;;;22.45;7.88;;;30.60;51.10;;;;;;6245652;23;20019;-82
2023/10/09 13:51:46;;;;;;;15.32;8.38;;;30.60;51.40;;;;;;6246203;23;20046;-80
2023/10/09 13:54:28;;;;;;;17.10;8.82;;;30.60;51.70;;;;;;6246109;23;20000;-83
2023/10/09 13:56:57;;;;;;;18.45;8.02;;;30.60;51.70;;;;;;6246833;23;20008;-83
2023/10/09 13:59:25;;;;;;;14.05;8.02;;;30.50;51.10;;;;;;6246559;23;20000;-83
2023/10/09 14:01:59;;;;;;;16.48;8.15;;;30.40;51.00;;;;;;6247168;23;20012;-83
2023/10/09 14:04:26;;;;;;;16.45;8.05;;;30.40;50.90;;;;;;6248536;23;20087;-83
2023/10/09 14:07:00;;;;;;;12.90;8.48;;;30.40;50.80;;;;;;6246578;23;20051;-84
2023/10/09 14:09:54;;;;;;;19.27;8.57;;;30.40;50.00;;;;;;6245845;23;20019;-83
2023/10/09 14:12:21;;;;;;;18.40;9.23;;;30.40;51.10;;;;;;6218837;23;20023;-85
2023/10/09 14:14:48;;;;;;;17.50;9.60;;;30.30;51.10;;;;;;6245805;23;20004;-83
2023/10/09 14:17:14;;;;;;;13.93;8.95;;;30.30;51.60;;;;;;6219097;23;20020;-82
2023/10/09 14:19:46;;;;;;;21.67;9.35;;;30.30;51.60;;;;;;6245818;23;19996;-82
2023/10/09 14:22:15;;;;;;;16.33;8.95;;;30.20;52.30;;;;;;6246580;23;20007;-82
2023/10/09 14:24:46;;;;;;;14.07;8.85;;;30.20;52.20;;;;;;6245357;23;20066;-82
2023/10/09 14:27:17;;;;;;;14.85;8.85;;;30.10;52.10;;;;;;6247162;23;20071;-82
2023/10/09 14:29:45;;;;;;;20.65;8.95;;;30.10;52.30;;;;;;6247466;23;20004;-83
2023/10/09 14:32:14;;;;;;;12.40;8.40;;;30.10;52.30;;;;;;6247469;23;20311;-83
2023/10/09 14:34:49;;;;;;;15.77;8.80;;;30.10;52.20;;;;;;6246939;23;20073;-82
2023/10/09 14:37:19;;;;;;;12.90;7.88;;;30.10;51.50;;;;;;6247102;23;20114;-83
2023/10/09 14:39:48;;;;;;;16.55;8.20;;;30.00;49.90;;;;;;6247414;23;20000;-84
2023/10/09 14:42:15;;;;;;;14.60;9.25;;;30.00;51.40;;;;;;6220970;23;20022;-83
2023/10/09 14:44:41;;;;;;;48.13;9.25;;;30.00;52.20;;;;;;6246993;23;20029;-83
2023/10/09 14:47:08;;;;;;;15.80;9.93;;;29.90;52.30;;;;;;6247204;23;20059;-82
2023/10/09 14:49:43;;;;;;;18.02;13.68;;;29.90;52.30;;;;;;6247628;23;20023;-84
2023/10/09 14:52:10;;;;;;;13.60;8.60;;;29.80;51.50;;;;;;6248244;23;20024;-83
2023/10/09 14:54:38;;;;;;;14.85;8.45;;;29.80;52.40;;;;;;6220572;23;20010;-85
2023/10/09 14:57:05;;;;;;;18.83;9.52;;;29.70;52.20;;;;;;6247727;23;20021;-84
2023/10/09 14:59:33;;;;;;;17.70;8.77;;;29.70;51.90;;;;;;6249221;23;20000;-82
2023/10/09 15:01:59;;;;;;;13.80;8.70;;;29.60;51.90;;;;;;6248205;23;20000;-84
2023/10/09 15:04:25;;;;;;;17.15;7.57;;;29.60;51.20;;;;;;6247775;23;20315;-83
2023/10/09 15:06:52;;;;;;;18.92;7.30;;;29.60;51.00;;;;;;6247928;23;19997;-84
2023/10/09 15:09:31;;;;;;;16.63;7.20;;;29.50;50.50;;;;;;6247304;23;20031;-83
2023/10/09 15:11:57;;;;;;;22.70;8.10;;;29.50;49.20;;;;;;6247786;23;20032;-84
2023/10/09 15:14:23;;;;;;;16.65;7.05;;;29.40;49.90;;;;;;6247390;23;20027;-82
2023/10/09 15:16:50;;;;;;;9.70;7.18;;;29.40;49.80;;;;;;6247357;23;20016;-83
2023/10/09 15:19:16;;;;;;;11.50;7.07;;;29.40;49.60;;;;;;6248938;23;20000;-83
2023/10/09 15:21:45;;;;;;;15.43;6.88;;;29.30;49.10;;;;;;6250407;23;20004;-83
2023/10/09 15:24:15;;;;;;;13.82;6.57;;;29.30;49.10;;;;;;6247128;23;20083;-83
2023/10/09 15:26:41;;;;;;;15.93;6.82;;;29.30;49.10;;;;;;6247131;23;20002;-85
2023/10/09 15:29:09;;;;;;;12.32;6.60;;;29.20;49.00;;;;;;6247904;23;20438;-84
2023/10/09 15:31:36;;;;;;;11.63;6.32;;;29.20;49.10;;;;;;6247578;23;20000;-82
2023/10/09 15:34:02;;;;;;;17.60;6.38;;;29.10;48.90;;;;;;6247668;23;20000;-83
2023/10/09 15:36:31;;;;;;;11.85;5.68;;;29.10;48.90;;;;;;6247171;23;20035;-84
2023/10/09 15:38:59;;;;;;;11.52;6.30;;;29.00;48.40;;;;;;6220847;23;20190;-83
2023/10/09 15:41:35;;;;;;;12.82;6.22;;;29.00;48.60;;;;;;6248256;23;20004;-82
2023/10/09 15:44:01;;;;;;;10.55;6.32;;;28.90;48.30;;;;;;6264292;23;20023;-82
2023/10/09 15:46:27;;;;;;;13.95;5.68;;;28.90;47.60;;;;;;6262602;23;20019;-82
2023/10/09 15:48:53;;;;;;;12.48;5.72;;;28.80;47.30;;;;;;6248350;23;19996;-83
2023/10/09 15:51:19;;;;;;;14.93;6.00;;;28.80;47.00;;;;;;6248486;23;20012;-83
2023/10/09 15:53:46;;;;;;;12.07;5.72;;;28.70;46.90;;;;;;6247239;23;20426;-83
2023/10/09 15:56:13;;;;;;;8.25;4.93;;;28.70;46.60;;;;;;6247407;23;20000;-82
2023/10/09 15:58:43;;;;;;;9.63;5.57;;;28.60;46.30;;;;;;6220147;23;20194;-83
2023/10/09 16:01:14;;;;;;;11.35;5.57;;;28.60;46.90;;;;;;6247858;23;19996;-83